Latest Weather Observations for Pirlangimpi

IDD60801

Issued at 2:31 pm CST Saturday 30 April 2016 (issued every 30 minutes, with the page automatically refreshed every 10 minutes)

About weather observations | Map of weather stations | Latest weather observations for NT | Other Formats
Station Details ID: 014142 Name: PIRLANGIMPI AIRPORT Lat: -11.40 Lon: 130.42 Height: 18.3 m
Data from the previous 72 hours. | See also: Recent months at Pirlangimpi
Date/Time
CST
Temp
°C
App
Temp
°C
Dew
Point
Rel
Hum
%
Delta-T
°C
Wind Press
QNH
hPa
Press
MSL
hPa
Rain
since 9 am
mm
Dir
 
Spd
km/h
Gust
km/h
Spd
kts
Gust
kts
30/02:30pm 33.3 37.4 24.5 60 6.2 SSW 11 13 6 7 1009.1 1009.0 0.0
30/02:00pm 32.8 36.4 24.3 61 6.0 SSW 13 17 7 9 1009.6 1009.5 0.0
30/01:30pm 31.9 35.7 23.4 60 5.9 SSW 9 13 5 7 1010.2 1010.1 0.0
30/01:00pm 32.4 36.5 23.9 61 5.9 SSW 9 15 5 8 1010.5 1010.4 0.0
30/12:30pm 33.0 37.1 23.3 56 6.7 E 7 15 4 8 1011.2 1011.1 0.0
30/12:00pm 31.4 35.6 23.5 63 5.5 S 7 13 4 7 1012.0 1011.9 0.0
30/11:30am 32.3 36.3 22.7 57 6.6 E 6 11 3 6 1012.4 1012.3 0.0
30/11:00am 32.7 37.5 24.5 62 5.8 ENE 7 11 4 6 1012.7 1012.6 0.0
30/10:30am 31.4 36.7 24.3 66 5.0 E 4 9 2 5 1013.1 1013.0 0.0
30/10:00am 31.0 36.6 24.9 70 4.3 ENE 4 7 2 4 1013.2 1013.1 0.0
30/09:30am 29.6 35.5 25.4 78 3.0 NE 4 7 2 4 1013.1 1013.0 0.0
30/09:00am 28.7 35.1 24.9 80 2.7 CALM 0 4 0 2 1012.8 1012.7 0.4
30/08:30am 26.1 32.6 25.1 94 0.7 CALM 0 0 0 0 1012.6 1012.5 0.4
30/08:00am 25.0 31.0 24.3 96 0.5 CALM 0 0 0 0 1012.5 1012.4 0.4
30/07:30am 24.5 30.1 23.6 95 0.6 CALM 0 2 0 1 1012.1 1012.0 0.4
30/07:00am 24.3 29.4 23.4 95 0.6 NE 2 4 1 2 1011.8 1011.7 0.4
30/06:30am 24.4 29.6 23.5 95 0.6 NE 2 2 1 1 1011.6 1011.5 0.4
30/06:00am 24.4 29.6 23.5 95 0.6 NE 2 4 1 2 1011.4 1011.3 0.4
30/05:30am 24.2 28.9 23.3 95 0.6 NE 4 4 2 2 1011.2 1011.1 0.4
30/05:00am 23.9 28.0 22.9 94 0.7 NE 6 6 3 3 1010.9 1010.8 0.4
30/04:30am 24.2 29.6 23.3 95 0.6 CALM 0 0 0 0 1010.7 1010.6 0.4
30/04:00am 24.0 29.3 23.0 94 0.7 CALM 0 0 0 0 1010.5 1010.4 0.4
30/03:30am 24.1 29.4 23.1 94 0.7 CALM 0 0 0 0 1010.5 1010.4 0.4
30/03:00am 23.9 29.1 22.9 94 0.7 CALM 0 0 0 0 1010.5 1010.4 0.4
30/02:30am 23.8 28.6 22.8 94 0.7 NE 2 4 1 2 1010.5 1010.4 0.4
30/02:00am 24.1 29.4 23.1 94 0.7 CALM 0 0 0 0 1010.6 1010.5 0.4
30/01:30am 24.0 29.3 23.0 94 0.7 CALM 0 0 0 0 1010.8 1010.7 0.4
30/01:00am 24.1 29.3 22.9 93 0.8 CALM 0 0 0 0 1011.2 1011.1 0.4
30/12:30am 24.2 29.1 23.0 93 0.8 NE 2 6 1 3 1011.5 1011.4 0.4
30/12:00am 24.3 29.5 22.9 92 0.9 CALM 0 0 0 0 1011.6 1011.5 0.4
 
Date/Time
CST
Temp
°C
App
Temp
°C
Dew
Point
Rel
Hum
%
Delta-T
°C
Wind Press
QNH
hPa
Press
MSL
hPa
Rain
since 9 am
mm
Dir
 
Spd
km/h
Gust
km/h
Spd
kts
Gust
kts
29/11:30pm 24.5 29.3 22.9 91 1.1 ENE 2 2 1 1 1011.8 1011.7 0.4
29/11:00pm 24.6 29.9 23.0 91 1.1 CALM 0 0 0 0 1012.0 1011.9 0.4
29/10:30pm 24.8 30.2 23.2 91 1.1 CALM 0 0 0 0 1012.2 1012.1 0.4
29/10:00pm 24.8 30.1 23.0 90 1.2 CALM 0 0 0 0 1012.5 1012.4 0.4
29/09:30pm 25.4 30.5 23.3 88 1.4 NE 2 2 1 1 1012.6 1012.5 0.4
29/09:00pm 26.0 31.7 23.7 87 1.6 CALM 0 2 0 1 1012.4 1012.3 0.4
29/08:30pm 26.3 31.6 23.0 82 2.2 CALM 0 0 0 0 1012.2 1012.1 0.4
29/08:00pm 26.9 31.5 23.2 80 2.5 NE 4 7 2 4 1011.9 1011.8 0.4
29/07:30pm 27.3 32.8 24.6 85 1.9 NE 4 6 2 3 1011.5 1011.4 0.4
29/07:00pm 27.1 33.2 24.4 85 1.9 CALM 0 0 0 0 1011.1 1011.0 0.4
29/06:30pm 27.8 33.8 24.2 81 2.5 CALM 0 0 0 0 1010.9 1010.8 0.4
29/06:00pm 28.2 33.6 23.8 77 3.0 WNW 2 4 1 2 1010.5 1010.4 0.4
29/05:30pm 28.6 33.6 23.9 75 3.3 W 4 6 2 3 1010.3 1010.2 0.4
29/05:00pm 29.5 34.5 23.9 72 3.9 WSW 4 7 2 4 1009.9 1009.8 0.4
29/04:30pm 28.7 33.8 23.4 73 3.6 SW 2 6 1 3 1009.6 1009.5 0.4
29/04:00pm 29.3 33.4 22.3 66 4.7 ENE 4 6 2 3 1009.2 1009.1 0.4
29/03:30pm 29.2 32.7 22.2 66 4.7 SE 7 17 4 9 1009.4 1009.3 0.4
29/03:00pm 29.0 33.3 24.3 76 3.3 SE 9 15 5 8 1009.7 1009.6 0.4
29/02:30pm 28.4 32.2 24.0 77 3.0 SE 11 19 6 10 1010.2 1010.1 0.4
29/02:00pm 29.0 34.3 24.3 76 3.3 ENE 4 9 2 5 1010.1 1010.0 0.4
29/01:30pm 31.3 37.2 24.7 68 4.6 WNW 2 6 1 3 1010.1 1010.0 0.0
29/01:00pm 31.5 36.2 23.9 64 5.3 SSW 6 11 3 6 1010.5 1010.4 0.0
29/12:30pm 32.1 36.0 23.6 60 5.9 SSW 9 15 5 8 1010.9 1010.8 0.0
29/12:00pm 31.7 35.8 24.0 63 5.4 SSW 9 15 5 8 1011.5 1011.4 0.0
29/11:30am 31.7 36.4 24.3 65 5.2 SW 7 11 4 6 1012.0 1011.9 0.0
29/11:00am 31.1 36.2 24.7 68 4.5 SW 6 11 3 6 1012.4 1012.3 0.0
29/10:30am 30.5 35.8 25.3 74 3.7 SW 7 13 4 7 1012.5 1012.4 0.0
29/10:00am 30.0 35.4 25.1 75 3.4 S 6 9 3 5 1012.6 1012.5 0.0
29/09:30am 29.2 34.9 25.0 78 2.9 SSE 4 6 2 3 1012.5 1012.4 0.0
29/09:00am 28.1 34.1 25.5 86 1.8 SE 4 6 2 3 1012.4 1012.3 6.8
29/08:30am 27.1 33.2 25.7 92 1.0 SSE 4 6 2 3 1012.2 1012.1 6.8
29/08:00am 26.2 32.5 25.3 95 0.6 SE 2 6 1 3 1012.0 1011.9 6.8
29/07:30am 25.4 31.2 24.5 95 0.6 E 2 2 1 1 1011.7 1011.6 6.8
29/07:00am 25.1 30.6 24.1 94 0.7 SE 2 2 1 1 1011.4 1011.3 6.8
29/06:30am 25.4 31.1 24.4 94 0.7 SE 2 4 1 2 1011.0 1010.9 6.8
29/06:00am 25.4 30.8 24.5 95 0.6 SE 4 4 2 2 1010.8 1010.7 6.8
29/05:30am 25.5 31.0 24.6 95 0.6 SE 4 6 2 3 1010.7 1010.6 6.8
29/05:00am 25.0 30.1 24.0 94 0.7 SE 4 4 2 2 1010.6 1010.5 6.8
29/04:30am 24.9 30.7 23.9 94 0.7 CALM 0 0 0 0 1010.4 1010.3 6.8
29/04:00am 24.8 30.5 23.8 94 0.7 CALM 0 0 0 0 1010.4 1010.3 6.8
29/03:30am 24.9 30.6 23.7 93 0.8 CALM 0 0 0 0 1010.4 1010.3 6.8
29/03:00am 25.0 30.4 23.8 93 0.8 NE 2 4 1 2 1010.5 1010.4 6.8
29/02:30am 25.1 30.8 23.7 92 1.0 CALM 0 0 0 0 1010.8 1010.7 6.8
29/02:00am 25.5 31.0 24.1 92 1.0 NE 2 4 1 2 1011.0 1010.9 6.8
29/01:30am 26.0 32.0 24.2 90 1.2 CALM 0 0 0 0 1011.3 1011.2 6.8
29/01:00am 26.1 32.2 24.5 91 1.1 CALM 0 0 0 0 1011.7 1011.6 6.8
29/12:30am 26.3 32.6 24.7 91 1.1 CALM 0 0 0 0 1011.8 1011.7 6.8
29/12:00am 26.3 32.6 24.7 91 1.1 CALM 0 0 0 0 1011.8 1011.7 6.8
 
Date/Time
CST
Temp
°C
App
Temp
°C
Dew
Point
Rel
Hum
%
Delta-T
°C
Wind Press
QNH
hPa
Press
MSL
hPa
Rain
since 9 am
mm
Dir
 
Spd
km/h
Gust
km/h
Spd
kts
Gust
kts
28/11:30pm 26.3 32.6 24.7 91 1.1 CALM 0 0 0 0 1011.8 1011.7 6.8
28/11:00pm 26.3 32.6 24.7 91 1.1 CALM 0 0 0 0 1011.9 1011.8 6.8
28/10:30pm 26.1 32.4 24.7 92 1.0 CALM 0 0 0 0 1011.9 1011.8 6.8
28/10:00pm 25.9 31.8 24.1 90 1.2 CALM 0 0 0 0 1012.0 1011.9 6.8
28/09:30pm 26.3 32.4 24.5 90 1.2 CALM 0 0 0 0 1012.0 1011.9 6.8
28/09:00pm 26.3 32.3 24.3 89 1.4 CALM 0 0 0 0 1011.7 1011.6 6.8
28/08:30pm 26.8 33.0 24.6 88 1.5 CALM 0 0 0 0 1011.4 1011.3 6.8
28/08:00pm 27.1 33.1 24.2 84 2.0 CALM 0 2 0 1 1010.8 1010.7 6.8
28/07:30pm 27.2 33.5 24.8 87 1.7 CALM 0 0 0 0 1010.4 1010.3 6.8
28/07:00pm 27.7 33.8 24.5 83 2.2 CALM 0 0 0 0 1010.2 1010.1 6.8
28/06:30pm 28.3 34.6 24.7 81 2.5 CALM 0 0 0 0 1010.0 1009.9 6.8
28/06:00pm 28.9 35.2 24.7 78 2.9 CALM 0 0 0 0 1009.8 1009.7 6.8
28/05:30pm 28.8 34.6 24.6 78 2.9 N 2 4 1 2 1009.6 1009.5 6.8
28/05:00pm 29.1 35.1 24.9 78 2.9 NNW 2 4 1 2 1009.4 1009.3 6.8
28/04:30pm 29.7 35.7 24.3 73 3.8 CALM 0 2 0 1 1008.9 1008.8 6.8
28/04:00pm 30.3 35.3 23.2 65 4.9 NW 2 6 1 3 1008.8 1008.7 6.8
28/03:30pm 30.1 35.1 23.8 69 4.4 N 4 7 2 4 1008.7 1008.6 6.8
28/03:00pm 29.9 34.6 23.3 67 4.5 N 4 9 2 5 1008.9 1008.8 6.8
28/02:30pm 29.9 35.0 24.1 71 4.0 NNE 4 9 2 5 1009.4 1009.3 6.8
28/02:00pm 29.4 33.9 23.6 71 4.0 NNE 6 13 3 7 1010.0 1009.9 6.8
28/01:30pm 29.9 34.3 23.8 70 4.2 NNE 7 22 4 12 1010.3 1010.2 6.8
28/01:00pm 30.0 33.7 23.2 67 4.7 NE 9 19 5 10 1010.6 1010.5 6.8
28/12:30pm 28.7 32.7 23.1 71 3.8 NE 7 17 4 9 1011.1 1011.0 6.8
28/12:00pm 28.1 32.9 24.5 81 2.5 NE 7 20 4 11 1011.4 1011.3 6.8
28/11:30am 26.8 32.4 25.4 92 1.0 N 6 7 3 4 1011.9 1011.8 6.8
28/11:00am 26.4 31.6 24.8 91 1.1 NNW 6 9 3 5 1012.2 1012.1 6.6
28/10:30am 28.7 32.3 23.8 75 3.4 E 11 17 6 9 1012.1 1012.0 0.2
28/10:00am 31.1 36.6 24.7 68 4.5 ENE 4 7 2 4 1012.1 1012.0 0.2
28/09:30am 30.2 35.7 24.6 72 3.9 NE 4 9 2 5 1011.8 1011.7 0.0
28/09:00am 29.2 35.8 25.8 82 2.4 NNE 2 6 1 3 1011.4 1011.3 0.0
28/08:30am 27.2 34.1 26.3 95 0.6 NNE 2 9 1 5 1011.2 1011.1 0.0
28/08:00am 25.3 31.5 24.6 96 0.5 CALM 0 0 0 0 1010.8 1010.7 0.0
28/07:30am 24.8 30.6 23.9 95 0.6 CALM 0 0 0 0 1010.3 1010.2 0.0
28/07:00am 24.6 29.9 23.7 95 0.6 NE 2 4 1 2 1009.8 1009.7 0.0
28/06:30am 24.9 30.0 24.0 95 0.6 NE 4 7 2 4 1009.4 1009.3 0.0
28/06:00am 25.2 31.2 24.2 94 0.7 CALM 0 0 0 0 1009.0 1008.9 0.0
28/05:30am 25.3 31.4 24.4 95 0.6 CALM 0 0 0 0 1009.1 1009.0 0.0
28/05:00am 25.5 30.9 24.5 94 0.7 SE 4 4 2 2 1009.4 1009.3 0.0
28/04:30am 25.3 31.3 24.3 94 0.7 CALM 0 0 0 0 1009.1 1009.0 0.0
28/04:00am 25.3 30.9 24.3 94 0.7 SE 2 4 1 2 1009.1 1009.0 0.0
28/03:30am 25.3 31.3 24.3 94 0.7 CALM 0 0 0 0 1009.1 1009.0 0.0
28/03:00am 25.3 31.3 24.3 94 0.7 CALM 0 0 0 0 1009.2 1009.1 0.0
28/02:30am 25.3 31.2 24.1 93 0.8 CALM 0 0 0 0 1009.5 1009.4 0.0
28/02:00am 25.4 31.4 24.2 93 0.8 CALM 0 0 0 0 1009.6 1009.5 0.0
28/01:30am 25.4 31.4 24.2 93 0.8 CALM 0 0 0 0 1009.7 1009.6 0.0
28/01:00am 25.5 31.6 24.5 94 0.7 CALM 0 0 0 0 1009.8 1009.7 0.0
28/12:30am 25.5 31.6 24.5 94 0.7 CALM 0 0 0 0 1010.1 1010.0 0.0
28/12:00am 25.5 31.5 24.3 93 0.8 CALM 0 0 0 0 1010.3 1010.2 0.0
 
Date/Time
CST
Temp
°C
App
Temp
°C
Dew
Point
Rel
Hum
%
Delta-T
°C
Wind Press
QNH
hPa
Press
MSL
hPa
Rain
since 9 am
mm
Dir
 
Spd
km/h
Gust
km/h
Spd
kts
Gust
kts
27/11:30pm 25.6 31.8 24.6 94 0.7 CALM 0 0 0 0 1010.2 1010.1 0.0
27/11:00pm 25.7 31.8 24.5 93 0.8 CALM 0 0 0 0 1010.3 1010.2 0.0
27/10:30pm 25.6 31.4 24.0 91 1.1 CALM 0 0 0 0 1010.4 1010.3 0.0
27/10:00pm 25.8 31.6 24.0 90 1.2 CALM 0 0 0 0 1010.3 1010.2 0.0
27/09:30pm 26.2 32.1 24.1 88 1.4 CALM 0 0 0 0 1010.2 1010.1 0.0
27/09:00pm 26.3 32.1 24.0 87 1.6 CALM 0 0 0 0 1009.9 1009.8 0.0
27/08:30pm 26.6 32.5 24.1 86 1.7 CALM 0 0 0 0 1009.7 1009.6 0.0
27/08:00pm 27.1 32.9 24.0 83 2.1 CALM 0 0 0 0 1009.4 1009.3 0.0
27/07:30pm 27.9 33.4 24.1 80 2.6 N 2 4 1 2 1009.3 1009.2 0.0
27/07:00pm 28.3 33.3 23.9 77 3.0 N 4 6 2 3 1008.9 1008.8 0.0
27/06:30pm 29.6 35.2 24.2 73 3.8 NNW 2 4 1 2 1008.8 1008.7 0.0
27/06:00pm 30.6 36.1 24.0 68 4.6 N 2 4 1 2 1008.7 1008.6 0.0
27/05:30pm 31.6 36.5 23.7 63 5.5 N 4 7 2 4 1008.3 1008.2 0.0
27/05:00pm 32.6 37.4 24.1 61 5.9 N 6 9 3 5 1008.1 1008.0 0.0
27/04:30pm 32.1 37.1 23.9 62 5.7 N 4 9 2 5 1008.2 1008.1 0.0
27/04:00pm 31.6 36.1 23.7 63 5.5 N 6 11 3 6 1008.0 1007.9 0.0
27/03:30pm 31.3 36.9 24.9 69 4.5 NNW 4 7 2 4 1008.0 1007.9 0.0
27/03:00pm 30.1 35.2 23.3 67 4.7 E 2 6 1 3 1008.5 1008.4 0.0

Other Formats:

Comma delimited format used in spreadsheet applications
http://www.bom.gov.au/fwo/IDD60801/IDD60801.94119.axf

JavaScript Object Notation format (JSON) in row-major order
http://www.bom.gov.au/fwo/IDD60801/IDD60801.94119.json